Time;durP1;ratioP1;P1;durP2;ratioP2;P2;SDS_P1;SDS_P2;PMS_P1;PMS_P2;Temp;Humidity;BMP_temperature;BMP_pressure;BME280_temperature;BME280_humidity;BME280_pressure;Samples;Min_cycle;Max_cycle;Signal;HPM_P1;HPM_P2
2021/09/23 00:02:46;;;;;;;13.32;10.90;;;;;;;;;;5032456;28;20245;-80
2021/09/23 00:05:14;;;;;;;14.38;10.43;;;;;;;;;;5032344;28;20212;-79
2021/09/23 00:07:40;;;;;;;14.18;10.48;;;;;;;;;;5033011;28;20178;-79
2021/09/23 00:10:07;;;;;;;13.75;10.43;;;;;;;;;;5032774;28;20174;-78
2021/09/23 00:12:33;;;;;;;16.03;10.30;;;;;;;;;;5036233;28;20251;-78
2021/09/23 00:14:59;;;;;;;16.93;11.17;;;;;;;;;;5036670;28;20408;-78
2021/09/23 00:17:25;;;;;;;13.10;10.63;;;;;;;;;;5036484;28;20821;-79
2021/09/23 00:19:51;;;;;;;13.60;10.40;;;;;;;;;;5018709;28;20832;-80
2021/09/23 00:22:17;;;;;;;12.75;10.05;;;;;;;;;;5035858;28;20186;-78
2021/09/23 00:24:43;;;;;;;12.23;9.38;;;;;;;;;;5036359;28;20180;-80
2021/09/23 00:27:09;;;;;;;15.63;10.20;;;;;;;;;;5036628;28;20265;-79
2021/09/23 00:29:35;;;;;;;14.68;11.57;;;;;;;;;;5036302;28;20412;-78
2021/09/23 00:32:01;;;;;;;13.57;10.00;;;;;;;;;;5018300;28;20202;-78
2021/09/23 00:34:27;;;;;;;12.67;9.50;;;;;;;;;;5036163;28;20508;-79
2021/09/23 00:36:53;;;;;;;14.65;10.43;;;;;;;;;;5036222;28;20419;-79
2021/09/23 00:39:22;;;;;;;14.30;10.47;;;;;;;;;;5036327;28;20206;-79
2021/09/23 00:41:48;;;;;;;15.37;9.77;;;;;;;;;;5035794;28;20461;-79
2021/09/23 00:44:15;;;;;;;14.87;10.63;;;;;;;;;;5036031;28;20447;-79
2021/09/23 00:46:42;;;;;;;15.50;10.30;;;;;;;;;;5036069;28;20401;-78
2021/09/23 00:49:08;;;;;;;11.52;10.32;;;;;;;;;;5035886;28;20178;-79
2021/09/23 00:51:34;;;;;;;13.73;11.50;;;;;;;;;;5035565;28;20202;-79
2021/09/23 00:54:01;;;;;;;14.27;10.15;;;;;;;;;;5018665;28;20412;-79
2021/09/23 00:56:27;;;;;;;18.15;10.68;;;;;;;;;;5018083;28;20189;-79
2021/09/23 00:58:53;;;;;;;15.50;9.53;;;;;;;;;;5035882;28;20202;-79
2021/09/23 01:01:19;;;;;;;12.93;10.00;;;;;;;;;;5035473;28;20401;-80
2021/09/23 01:03:45;;;;;;;14.70;10.73;;;;;;;;;;5035720;28;20666;-80
2021/09/23 01:06:11;;;;;;;11.53;9.50;;;;;;;;;;5017848;28;20405;-79
2021/09/23 01:08:40;;;;;;;13.13;9.52;;;;;;;;;;5035562;28;20405;-79
2021/09/23 01:11:06;;;;;;;16.20;10.68;;;;;;;;;;5035199;28;20643;-79
2021/09/23 01:13:32;;;;;;;18.27;11.35;;;;;;;;;;5035490;28;20269;-80
2021/09/23 01:15:58;;;;;;;12.98;9.75;;;;;;;;;;5035522;28;20280;-79
2021/09/23 01:18:24;;;;;;;12.20;9.63;;;;;;;;;;5035270;28;20281;-79
2021/09/23 01:20:50;;;;;;;15.55;10.32;;;;;;;;;;5017752;28;20409;-80
2021/09/23 01:23:17;;;;;;;16.48;10.73;;;;;;;;;;5016955;28;20249;-80
2021/09/23 01:25:43;;;;;;;14.18;10.20;;;;;;;;;;5035361;28;20180;-79
2021/09/23 01:28:09;;;;;;;14.13;9.80;;;;;;;;;;5017616;28;20182;-79
2021/09/23 01:30:35;;;;;;;10.10;8.63;;;;;;;;;;5035092;28;20582;-79
2021/09/23 01:33:01;;;;;;;11.52;9.80;;;;;;;;;;5016891;28;20206;-79
2021/09/23 01:35:27;;;;;;;11.93;9.50;;;;;;;;;;5035089;28;20178;-79
2021/09/23 01:37:53;;;;;;;17.35;10.18;;;;;;;;;;5034989;28;20536;-78
2021/09/23 01:40:19;;;;;;;10.43;8.60;;;;;;;;;;5035156;28;20178;-80
2021/09/23 01:42:45;;;;;;;14.30;9.70;;;;;;;;;;5016797;28;20567;-80
2021/09/23 01:45:12;;;;;;;14.15;10.10;;;;;;;;;;5035227;28;20405;-78
2021/09/23 01:47:38;;;;;;;11.60;9.32;;;;;;;;;;5035155;28;20178;-79
2021/09/23 01:50:05;;;;;;;14.23;9.45;;;;;;;;;;5035161;28;20174;-78
2021/09/23 01:52:31;;;;;;;16.50;11.00;;;;;;;;;;5034859;28;20194;-80
2021/09/23 01:54:57;;;;;;;13.23;11.00;;;;;;;;;;5034779;28;20526;-78
2021/09/23 01:57:23;;;;;;;12.00;10.47;;;;;;;;;;5034801;28;20261;-79
2021/09/23 01:59:49;;;;;;;15.17;10.33;;;;;;;;;;5034740;28;20518;-79
2021/09/23 02:02:15;;;;;;;12.27;9.23;;;;;;;;;;5018483;28;20425;-80
2021/09/23 02:04:41;;;;;;;13.80;10.27;;;;;;;;;;5040109;28;20755;-79
2021/09/23 02:07:07;;;;;;;13.60;9.63;;;;;;;;;;5034506;28;20413;-80
2021/09/23 02:09:33;;;;;;;13.43;10.07;;;;;;;;;;5034563;28;20182;-78
2021/09/23 02:12:03;;;;;;;13.67;10.63;;;;;;;;;;5034326;28;20225;-79
2021/09/23 02:14:29;;;;;;;12.20;9.95;;;;;;;;;;5034545;28;20490;-80
2021/09/23 02:16:55;;;;;;;13.35;10.27;;;;;;;;;;5016790;28;20638;-79
2021/09/23 02:19:21;;;;;;;12.13;9.88;;;;;;;;;;5034296;28;20564;-78
2021/09/23 02:21:48;;;;;;;17.73;10.00;;;;;;;;;;5033974;28;20190;-81
2021/09/23 02:24:14;;;;;;;11.95;9.63;;;;;;;;;;5034157;28;20425;-80
2021/09/23 02:26:40;;;;;;;12.57;9.80;;;;;;;;;;5016323;28;20192;-80
2021/09/23 02:29:06;;;;;;;11.18;8.82;;;;;;;;;;5016394;28;20185;-80
2021/09/23 02:31:32;;;;;;;16.67;10.68;;;;;;;;;;5033656;28;20198;-80
2021/09/23 02:33:58;;;;;;;17.70;11.30;;;;;;;;;;5033287;28;20652;-80
2021/09/23 02:36:24;;;;;;;14.20;11.07;;;;;;;;;;5034045;28;20417;-80
2021/09/23 02:38:50;;;;;;;15.43;10.33;;;;;;;;;;5033910;28;20460;-80
2021/09/23 02:41:16;;;;;;;14.95;9.50;;;;;;;;;;4999445;28;20417;-79
2021/09/23 02:43:42;;;;;;;14.10;9.90;;;;;;;;;;5033846;28;20682;-79
2021/09/23 02:46:08;;;;;;;13.52;9.70;;;;;;;;;;5033980;28;20872;-79
2021/09/23 02:48:34;;;;;;;17.05;11.20;;;;;;;;;;5033850;28;20181;-80
2021/09/23 02:51:00;;;;;;;10.52;9.18;;;;;;;;;;5033576;28;20268;-80
2021/09/23 02:53:26;;;;;;;12.80;10.40;;;;;;;;;;5015885;28;20217;-79
2021/09/23 02:55:52;;;;;;;13.85;10.20;;;;;;;;;;5033959;28;20471;-80
2021/09/23 02:58:18;;;;;;;12.67;10.07;;;;;;;;;;5033609;28;20218;-79
2021/09/23 03:00:44;;;;;;;14.77;10.40;;;;;;;;;;5033797;28;20456;-79
2021/09/23 03:03:14;;;;;;;12.32;10.10;;;;;;;;;;5033428;28;20611;-80
2021/09/23 03:05:40;;;;;;;12.18;9.52;;;;;;;;;;5033626;28;20181;-80
2021/09/23 03:08:06;;;;;;;13.97;11.50;;;;;;;;;;5033547;28;20695;-80
2021/09/23 03:10:32;;;;;;;12.75;10.48;;;;;;;;;;5033500;28;20459;-79
2021/09/23 03:12:58;;;;;;;12.30;10.00;;;;;;;;;;5033119;28;20651;-78
2021/09/23 03:15:24;;;;;;;18.57;9.40;;;;;;;;;;5033261;28;20413;-80
2021/09/23 03:17:50;;;;;;;18.77;10.98;;;;;;;;;;5033131;28;20449;-79
2021/09/23 03:20:16;;;;;;;11.90;10.20;;;;;;;;;;5033391;28;20245;-79
2021/09/23 03:22:42;;;;;;;12.27;9.13;;;;;;;;;;5032864;28;20522;-79
2021/09/23 03:25:08;;;;;;;12.93;10.30;;;;;;;;;;5033131;28;20400;-80
2021/09/23 03:27:34;;;;;;;13.43;8.50;;;;;;;;;;5033057;28;20194;-79
2021/09/23 03:30:00;;;;;;;10.33;8.50;;;;;;;;;;5033090;28;20650;-79
2021/09/23 03:32:26;;;;;;;12.70;8.80;;;;;;;;;;5032916;28;20497;-79
2021/09/23 03:34:52;;;;;;;11.93;9.10;;;;;;;;;;5015382;28;20413;-79
2021/09/23 03:37:18;;;;;;;11.50;9.85;;;;;;;;;;5033166;28;20410;-79
2021/09/23 03:39:44;;;;;;;12.88;9.38;;;;;;;;;;5032879;28;20560;-79
2021/09/23 03:42:10;;;;;;;11.90;8.70;;;;;;;;;;5032755;28;20202;-79
2021/09/23 03:44:36;;;;;;;11.52;8.68;;;;;;;;;;5032968;28;20174;-80
2021/09/23 03:47:03;;;;;;;11.48;8.85;;;;;;;;;;5036631;28;20231;-79
2021/09/23 03:49:29;;;;;;;12.05;8.68;;;;;;;;;;5037401;28;20537;-79
2021/09/23 03:51:55;;;;;;;14.30;9.80;;;;;;;;;;5019019;28;20705;-79
2021/09/23 03:54:21;;;;;;;10.45;9.05;;;;;;;;;;5019515;28;20186;-79
2021/09/23 03:56:47;;;;;;;11.32;9.93;;;;;;;;;;5036809;28;20185;-77
2021/09/23 03:59:13;;;;;;;10.85;8.55;;;;;;;;;;5019149;28;20209;-79
2021/09/23 04:01:39;;;;;;;11.30;7.77;;;;;;;;;;5036521;28;20209;-78
2021/09/23 04:04:05;;;;;;;12.83;9.70;;;;;;;;;;5036800;28;20500;-80
2021/09/23 04:06:31;;;;;;;11.07;9.38;;;;;;;;;;5018950;28;20425;-79
2021/09/23 04:08:57;;;;;;;12.17;8.80;;;;;;;;;;5036836;28;20182;-78
2021/09/23 04:11:23;;;;;;;14.30;9.23;;;;;;;;;;5036386;28;20783;-78
2021/09/23 04:13:49;;;;;;;13.70;9.10;;;;;;;;;;5036484;28;20421;-78
2021/09/23 04:16:15;;;;;;;12.67;9.30;;;;;;;;;;5036709;28;20770;-79
2021/09/23 04:18:41;;;;;;;15.60;9.73;;;;;;;;;;5036599;28;20467;-78
2021/09/23 04:21:07;;;;;;;13.80;9.27;;;;;;;;;;5036208;28;20162;-79
2021/09/23 04:23:33;;;;;;;11.97;9.50;;;;;;;;;;5036485;28;20421;-79
2021/09/23 04:25:59;;;;;;;10.63;8.60;;;;;;;;;;5036391;28;20409;-78
2021/09/23 04:28:25;;;;;;;18.83;11.00;;;;;;;;;;5018653;28;20413;-79
2021/09/23 04:30:51;;;;;;;11.87;8.90;;;;;;;;;;5036332;28;20244;-78
2021/09/23 04:33:17;;;;;;;14.87;8.97;;;;;;;;;;5035877;28;20432;-79
2021/09/23 04:35:45;;;;;;;13.00;8.87;;;;;;;;;;5036229;28;20889;-81
2021/09/23 04:38:11;;;;;;;9.80;8.45;;;;;;;;;;5018298;28;20460;-79
2021/09/23 04:40:37;;;;;;;12.23;9.23;;;;;;;;;;5036367;28;20189;-80
2021/09/23 04:43:03;;;;;;;13.93;7.40;;;;;;;;;;5035918;28;20285;-79
2021/09/23 04:45:29;;;;;;;11.50;7.50;;;;;;;;;;5018471;28;20216;-79
2021/09/23 04:47:55;;;;;;;11.43;8.18;;;;;;;;;;5018469;28;20189;-80
2021/09/23 04:50:21;;;;;;;11.63;8.03;;;;;;;;;;5036436;28;20181;-80
2021/09/23 04:52:47;;;;;;;14.50;9.40;;;;;;;;;;5017890;28;20852;-78
2021/09/23 04:55:13;;;;;;;10.60;8.57;;;;;;;;;;5036030;28;20312;-80
2021/09/23 04:57:39;;;;;;;12.07;9.83;;;;;;;;;;5035242;28;20265;-78
2021/09/23 05:00:06;;;;;;;10.50;8.55;;;;;;;;;;5017775;28;20421;-78
2021/09/23 05:02:33;;;;;;;13.52;9.73;;;;;;;;;;5035241;28;20206;-80
2021/09/23 05:04:59;;;;;;;15.98;9.50;;;;;;;;;;5035993;28;20174;-80
2021/09/23 05:07:25;;;;;;;15.38;9.50;;;;;;;;;;5035929;28;20205;-81
2021/09/23 05:09:51;;;;;;;12.60;10.10;;;;;;;;;;5017346;28;20217;-80
2021/09/23 05:12:17;;;;;;;12.88;9.05;;;;;;;;;;5016945;28;20432;-82
2021/09/23 05:14:43;;;;;;;11.05;8.23;;;;;;;;;;5035611;28;20236;-81
2021/09/23 05:17:09;;;;;;;15.03;9.83;;;;;;;;;;5035661;28;20186;-78
2021/09/23 05:19:35;;;;;;;17.40;9.43;;;;;;;;;;5035548;28;20492;-81
2021/09/23 05:22:01;;;;;;;14.82;9.93;;;;;;;;;;5035024;28;20432;-80
2021/09/23 05:24:27;;;;;;;16.50;10.90;;;;;;;;;;5035247;28;20182;-80
2021/09/23 05:26:53;;;;;;;13.90;9.65;;;;;;;;;;5018355;28;20448;-80
2021/09/23 05:29:19;;;;;;;12.53;8.83;;;;;;;;;;5036478;28;20210;-78
2021/09/23 05:31:45;;;;;;;12.73;8.97;;;;;;;;;;5035723;28;20523;-82
2021/09/23 05:34:11;;;;;;;12.93;10.37;;;;;;;;;;5036199;28;20432;-79
2021/09/23 05:36:37;;;;;;;25.20;10.20;;;;;;;;;;5017873;28;20421;-82
2021/09/23 05:39:04;;;;;;;13.57;10.70;;;;;;;;;;5017657;28;20462;-79
2021/09/23 05:41:30;;;;;;;15.93;12.02;;;;;;;;;;5035427;28;20259;-80
2021/09/23 05:43:56;;;;;;;21.15;12.90;;;;;;;;;;5035939;28;20515;-79
2021/09/23 05:46:22;;;;;;;22.38;12.50;;;;;;;;;;5035962;28;20253;-81
2021/09/23 05:48:48;;;;;;;13.77;10.97;;;;;;;;;;5034979;28;20699;-81
2021/09/23 05:51:14;;;;;;;24.03;12.63;;;;;;;;;;5017339;28;20417;-79
2021/09/23 05:53:40;;;;;;;13.90;11.25;;;;;;;;;;5035365;28;20409;-82
2021/09/23 05:56:07;;;;;;;12.43;10.18;;;;;;;;;;5035204;28;20542;-79
2021/09/23 05:58:33;;;;;;;14.40;9.70;;;;;;;;;;5034691;28;20209;-83
2021/09/23 06:00:59;;;;;;;13.80;9.50;;;;;;;;;;5035114;28;20697;-84
2021/09/23 06:03:24;;;;;;;13.90;10.07;;;;;;;;;;5035265;28;20326;-78
2021/09/23 06:05:50;;;;;;;13.10;9.63;;;;;;;;;;5034781;28;20506;-80
2021/09/23 06:08:17;;;;;;;14.17;9.97;;;;;;;;;;5033801;28;20420;-83
2021/09/23 06:10:43;;;;;;;11.98;9.10;;;;;;;;;;5016809;28;20413;-81
2021/09/23 06:13:09;;;;;;;14.02;9.68;;;;;;;;;;5034209;28;20206;-81
2021/09/23 06:15:35;;;;;;;11.90;9.52;;;;;;;;;;5017081;28;20650;-80
2021/09/23 06:18:02;;;;;;;14.65;9.55;;;;;;;;;;5034301;28;20208;-81
2021/09/23 06:20:28;;;;;;;15.25;10.35;;;;;;;;;;5034480;28;20175;-82
2021/09/23 06:22:55;;;;;;;15.82;9.90;;;;;;;;;;5033818;28;20238;-81
2021/09/23 06:25:21;;;;;;;15.23;9.98;;;;;;;;;;5016740;28;20186;-83
2021/09/23 06:27:47;;;;;;;10.68;8.80;;;;;;;;;;5034404;28;20249;-82
2021/09/23 06:30:14;;;;;;;19.23;9.63;;;;;;;;;;5034255;28;20576;-82
2021/09/23 06:32:40;;;;;;;16.40;11.48;;;;;;;;;;5033739;28;20197;-80
2021/09/23 06:35:06;;;;;;;13.98;10.73;;;;;;;;;;5034116;28;20202;-80
2021/09/23 06:37:32;;;;;;;11.63;9.13;;;;;;;;;;5016288;28;20182;-81
2021/09/23 06:39:59;;;;;;;14.50;9.75;;;;;;;;;;5033865;28;20210;-80
2021/09/23 06:42:25;;;;;;;15.37;10.10;;;;;;;;;;5016133;28;20198;-82
2021/09/23 06:44:51;;;;;;;13.10;10.27;;;;;;;;;;5033741;28;20409;-81
2021/09/23 06:47:17;;;;;;;12.47;9.50;;;;;;;;;;5033868;28;20439;-80
2021/09/23 06:49:43;;;;;;;19.08;11.02;;;;;;;;;;5033813;28;20494;-83
2021/09/23 06:52:09;;;;;;;13.07;10.70;;;;;;;;;;5033499;28;20206;-81
2021/09/23 06:54:35;;;;;;;13.00;9.48;;;;;;;;;;5033949;28;20638;-82
2021/09/23 06:57:01;;;;;;;11.85;9.70;;;;;;;;;;5033738;28;20208;-80
2021/09/23 06:59:27;;;;;;;13.32;10.10;;;;;;;;;;4999757;28;20234;-82
2021/09/23 07:01:53;;;;;;;13.93;9.07;;;;;;;;;;5033315;28;20295;-82
2021/09/23 07:04:19;;;;;;;12.07;9.03;;;;;;;;;;5033676;28;20432;-80
2021/09/23 07:06:45;;;;;;;11.43;9.38;;;;;;;;;;5033739;28;20428;-80
2021/09/23 07:09:11;;;;;;;12.35;9.00;;;;;;;;;;4999481;28;20608;-82
2021/09/23 07:11:37;;;;;;;11.70;8.77;;;;;;;;;;5015714;28;20234;-81
2021/09/23 07:14:04;;;;;;;12.03;9.70;;;;;;;;;;5033731;28;21021;-78
2021/09/23 07:16:30;;;;;;;13.20;8.05;;;;;;;;;;5033557;28;20944;-81
2021/09/23 07:18:56;;;;;;;10.53;8.60;;;;;;;;;;5033435;28;20217;-83
2021/09/23 07:21:22;;;;;;;8.80;7.88;;;;;;;;;;5033013;28;20412;-80
2021/09/23 07:23:48;;;;;;;10.87;8.30;;;;;;;;;;5015747;28;20689;-81
2021/09/23 07:26:16;;;;;;;17.58;8.32;;;;;;;;;;4999432;28;20437;-82
2021/09/23 07:28:43;;;;;;;10.97;8.30;;;;;;;;;;5033758;28;20229;-83
2021/09/23 07:31:11;;;;;;;14.77;7.20;;;;;;;;;;5033058;28;20437;-82
2021/09/23 07:33:37;;;;;;;9.70;6.70;;;;;;;;;;5033477;28;20405;-79
2021/09/23 07:36:03;;;;;;;9.27;7.23;;;;;;;;;;5015969;28;20413;-80
2021/09/23 07:38:29;;;;;;;14.27;7.33;;;;;;;;;;5033685;28;20499;-79
2021/09/23 07:40:55;;;;;;;7.30;6.37;;;;;;;;;;5033615;28;20825;-80
2021/09/23 07:43:21;;;;;;;11.33;6.97;;;;;;;;;;5035710;28;20591;-80
2021/09/23 07:45:47;;;;;;;9.33;6.40;;;;;;;;;;5033877;28;20776;-80
2021/09/23 07:48:13;;;;;;;9.53;6.33;;;;;;;;;;5033819;28;20420;-79
2021/09/23 07:50:39;;;;;;;8.13;5.50;;;;;;;;;;5033793;28;20443;-79
2021/09/23 07:53:05;;;;;;;10.37;5.97;;;;;;;;;;5033571;28;20438;-80
2021/09/23 07:55:31;;;;;;;7.80;5.90;;;;;;;;;;5033967;28;20474;-79
2021/09/23 07:57:57;;;;;;;14.60;5.50;;;;;;;;;;5033689;28;20951;-81
2021/09/23 08:00:24;;;;;;;6.37;5.73;;;;;;;;;;5034218;28;20401;-80
2021/09/23 08:02:52;;;;;;;6.43;4.50;;;;;;;;;;5033480;28;20467;-80
2021/09/23 08:05:18;;;;;;;9.27;6.00;;;;;;;;;;5015864;28;20428;-81
2021/09/23 08:07:45;;;;;;;6.60;5.80;;;;;;;;;;5033393;28;20823;-78
2021/09/23 08:10:11;;;;;;;10.47;5.60;;;;;;;;;;5033958;28;20470;-79
2021/09/23 08:12:37;;;;;;;9.07;5.50;;;;;;;;;;5033464;28;20498;-79
2021/09/23 08:15:04;;;;;;;6.17;5.53;;;;;;;;;;5033662;28;20504;-79
2021/09/23 08:17:30;;;;;;;11.73;6.03;;;;;;;;;;5033454;28;20772;-79
2021/09/23 08:19:56;;;;;;;7.00;6.30;;;;;;;;;;4999244;28;20471;-79
2021/09/23 08:22:22;;;;;;;9.53;5.50;;;;;;;;;;5032890;28;20441;-79
2021/09/23 08:24:48;;;;;;;11.30;5.33;;;;;;;;;;5015498;28;20516;-80
2021/09/23 08:27:14;;;;;;;6.97;5.13;;;;;;;;;;5032981;28;20479;-81
2021/09/23 08:29:40;;;;;;;7.73;4.97;;;;;;;;;;5032926;28;20413;-78
2021/09/23 08:32:06;;;;;;;7.40;5.10;;;;;;;;;;5033942;28;20515;-78
2021/09/23 08:34:32;;;;;;;9.17;4.60;;;;;;;;;;5036558;28;20429;-79
2021/09/23 08:36:58;;;;;;;11.10;4.83;;;;;;;;;;5036391;28;20413;-79
2021/09/23 08:39:24;;;;;;;6.10;4.20;;;;;;;;;;5036141;28;20463;-78
2021/09/23 08:41:50;;;;;;;7.37;4.60;;;;;;;;;;5035722;28;20962;-80
2021/09/23 08:44:16;;;;;;;8.03;4.77;;;;;;;;;;5018324;28;20448;-78
2021/09/23 08:46:43;;;;;;;4.90;3.90;;;;;;;;;;5036191;28;20380;-80
2021/09/23 08:49:10;;;;;;;4.80;4.27;;;;;;;;;;5036315;28;20439;-79
2021/09/23 08:51:37;;;;;;;11.47;4.27;;;;;;;;;;5017965;28;20415;-80
2021/09/23 08:54:04;;;;;;;6.73;4.17;;;;;;;;;;5035731;28;20735;-78
2021/09/23 08:56:30;;;;;;;5.73;3.63;;;;;;;;;;5018250;28;20416;-78
2021/09/23 08:58:56;;;;;;;10.40;4.27;;;;;;;;;;5035887;28;20595;-79
2021/09/23 09:01:24;;;;;;;5.93;4.60;;;;;;;;;;5035481;28;20491;-79
2021/09/23 09:04:03;;;;;;;6.90;3.73;;;;;;;;;;5018079;28;20426;-78
2021/09/23 09:06:29;;;;;;;9.73;4.40;;;;;;;;;;5035709;28;20392;-79
2021/09/23 09:08:56;;;;;;;6.10;3.43;;;;;;;;;;5035599;28;20391;-79
2021/09/23 09:11:22;;;;;;;6.73;3.37;;;;;;;;;;5017454;28;20399;-79
2021/09/23 09:13:49;;;;;;;7.20;3.57;;;;;;;;;;5035635;28;20791;-76
2021/09/23 09:16:22;;;;;;;8.93;4.20;;;;;;;;;;5035518;28;20827;-77
2021/09/23 09:18:49;;;;;;;8.83;3.67;;;;;;;;;;5035536;28;20983;-76
2021/09/23 09:21:16;;;;;;;4.70;3.30;;;;;;;;;;5035133;28;20498;-76
2021/09/23 09:23:52;;;;;;;3.10;2.67;;;;;;;;;;5035253;28;20403;-75
2021/09/23 09:26:22;;;;;;;8.80;4.20;;;;;;;;;;5035123;28;20505;-76
2021/09/23 09:28:50;;;;;;;6.40;3.87;;;;;;;;;;5035264;28;20816;-76
2021/09/23 09:31:16;;;;;;;8.07;3.70;;;;;;;;;;5034834;28;20417;-76
2021/09/23 09:33:44;;;;;;;8.93;3.93;;;;;;;;;;5035014;28;20760;-75
2021/09/23 09:36:30;;;;;;;12.43;3.97;;;;;;;;;;5034897;28;20561;-76
2021/09/23 09:38:58;;;;;;;4.90;3.63;;;;;;;;;;5034942;28;20972;-80
2021/09/23 09:41:26;;;;;;;5.93;3.20;;;;;;;;;;5016730;28;20421;-76
2021/09/23 09:43:53;;;;;;;8.37;4.37;;;;;;;;;;5034767;28;20409;-76
2021/09/23 09:46:34;;;;;;;7.20;3.80;;;;;;;;;;5034829;28;20413;-76
2021/09/23 09:49:00;;;;;;;5.90;4.40;;;;;;;;;;5034862;28;20420;-76
2021/09/23 09:51:39;;;;;;;10.10;4.10;;;;;;;;;;5034463;28;20421;-78
2021/09/23 09:54:06;;;;;;;7.43;4.47;;;;;;;;;;5034782;28;20487;-79
2021/09/23 09:56:32;;;;;;;8.67;3.37;;;;;;;;;;5034469;28;20417;-78
2021/09/23 09:59:05;;;;;;;10.23;3.50;;;;;;;;;;5034580;28;20463;-78
2021/09/23 10:01:31;;;;;;;9.30;3.70;;;;;;;;;;5034331;28;20431;-78
2021/09/23 10:03:57;;;;;;;12.03;3.00;;;;;;;;;;5034887;28;20767;-78
2021/09/23 10:06:24;;;;;;;20.40;3.97;;;;;;;;;;5016972;28;20973;-78
2021/09/23 10:08:50;;;;;;;7.37;3.57;;;;;;;;;;5034419;28;20420;-77
2021/09/23 10:11:17;;;;;;;12.20;3.30;;;;;;;;;;5034122;28;20425;-78
2021/09/23 10:13:44;;;;;;;9.80;3.83;;;;;;;;;;5034448;28;20424;-79
2021/09/23 10:16:10;;;;;;;5.43;3.10;;;;;;;;;;5034721;28;20421;-78
2021/09/23 10:18:36;;;;;;;10.27;3.00;;;;;;;;;;5034257;28;20459;-77
2021/09/23 10:21:02;;;;;;;3.80;2.60;;;;;;;;;;5016803;28;20421;-78
2021/09/23 10:23:31;;;;;;;6.00;2.80;;;;;;;;;;5036502;28;20857;-78
2021/09/23 10:25:59;;;;;;;7.77;2.30;;;;;;;;;;5017217;28;20417;-78
2021/09/23 10:28:26;;;;;;;4.07;2.60;;;;;;;;;;5016742;28;20413;-78
2021/09/23 10:30:52;;;;;;;5.50;3.03;;;;;;;;;;5016298;28;20432;-78
2021/09/23 10:33:18;;;;;;;7.63;3.17;;;;;;;;;;5034034;28;20437;-78
2021/09/23 10:35:45;;;;;;;3.97;2.90;;;;;;;;;;5034211;28;20889;-78
2021/09/23 10:38:13;;;;;;;8.87;2.80;;;;;;;;;;5034927;28;20449;-78
2021/09/23 10:40:41;;;;;;;6.63;3.40;;;;;;;;;;5033878;28;20529;-78
2021/09/23 10:43:15;;;;;;;14.20;3.00;;;;;;;;;;5015722;28;20469;-78
2021/09/23 10:45:42;;;;;;;4.37;2.40;;;;;;;;;;5034054;28;20423;-79
2021/09/23 10:48:08;;;;;;;6.37;2.90;;;;;;;;;;5033816;28;20476;-78
2021/09/23 10:50:34;;;;;;;4.13;3.13;;;;;;;;;;5016039;28;20507;-78
2021/09/23 10:53:01;;;;;;;5.30;2.80;;;;;;;;;;5033258;28;20428;-78
2021/09/23 10:55:31;;;;;;;8.67;3.50;;;;;;;;;;5015783;28;20479;-77
2021/09/23 10:57:58;;;;;;;8.03;3.33;;;;;;;;;;5033829;28;20409;-77
2021/09/23 11:00:28;;;;;;;7.60;3.00;;;;;;;;;;5034086;28;20412;-78
2021/09/23 11:02:55;;;;;;;3.80;2.97;;;;;;;;;;5015505;28;20468;-77
2021/09/23 11:05:22;;;;;;;6.40;3.37;;;;;;;;;;5033289;28;20466;-78
2021/09/23 11:07:48;;;;;;;7.20;3.27;;;;;;;;;;5033559;28;20408;-78
2021/09/23 11:10:24;;;;;;;4.27;3.27;;;;;;;;;;5033861;28;21004;-78
2021/09/23 11:12:54;;;;;;;6.63;3.17;;;;;;;;;;5032958;28;20511;-78
2021/09/23 11:15:21;;;;;;;4.40;3.40;;;;;;;;;;5033491;28;20423;-78
2021/09/23 11:17:48;;;;;;;4.57;3.00;;;;;;;;;;5033474;28;20478;-78
2021/09/23 11:20:44;;;;;;;5.40;3.17;;;;;;;;;;5018792;28;20444;-78
2021/09/23 11:23:12;;;;;;;9.77;2.70;;;;;;;;;;5031706;28;20464;-78
2021/09/23 11:25:41;;;;;;;9.30;3.27;;;;;;;;;;5033273;28;20408;-78
2021/09/23 11:28:07;;;;;;;9.70;3.37;;;;;;;;;;5033347;28;20417;-78
2021/09/23 11:30:35;;;;;;;5.70;2.80;;;;;;;;;;5033261;28;20407;-79
2021/09/23 11:33:04;;;;;;;10.97;3.23;;;;;;;;;;5032797;28;20929;-77
2021/09/23 11:35:32;;;;;;;6.73;2.83;;;;;;;;;;5033127;28;20409;-77
2021/09/23 11:37:58;;;;;;;3.33;2.60;;;;;;;;;;5033113;28;20413;-78
2021/09/23 11:40:35;;;;;;;7.10;2.90;;;;;;;;;;5015930;28;20511;-78
2021/09/23 11:43:02;;;;;;;9.77;3.13;;;;;;;;;;5032690;28;20837;-77
2021/09/23 11:45:29;;;;;;;5.33;3.03;;;;;;;;;;5032900;28;20412;-77
2021/09/23 11:47:57;;;;;;;2.90;2.67;;;;;;;;;;5033060;28;20414;-77
2021/09/23 11:50:31;;;;;;;3.57;2.47;;;;;;;;;;5033014;28;20400;-78
2021/09/23 11:53:02;;;;;;;6.73;3.03;;;;;;;;;;5032666;28;20424;-79
2021/09/23 11:55:29;;;;;;;8.90;2.87;;;;;;;;;;5015372;28;20413;-79
2021/09/23 11:58:05;;;;;;;3.63;2.50;;;;;;;;;;5032948;28;20429;-79
2021/09/23 12:00:39;;;;;;;9.80;3.67;;;;;;;;;;5033140;28;20488;-78
2021/09/23 12:03:06;;;;;;;5.80;3.10;;;;;;;;;;5014759;28;20937;-79
2021/09/23 12:05:32;;;;;;;8.23;3.40;;;;;;;;;;5032834;28;20516;-78
2021/09/23 12:08:05;;;;;;;8.60;2.80;;;;;;;;;;5018868;28;20452;-79
2021/09/23 12:10:31;;;;;;;3.70;2.60;;;;;;;;;;5019072;28;20448;-78
2021/09/23 12:12:59;;;;;;;3.33;2.80;;;;;;;;;;5036609;28;20475;-78
2021/09/23 12:15:28;;;;;;;5.50;2.60;;;;;;;;;;5037060;28;20421;-79
2021/09/23 12:17:56;;;;;;;7.77;2.50;;;;;;;;;;5036649;28;20793;-78
2021/09/23 12:20:36;;;;;;;8.70;3.10;;;;;;;;;;5039515;28;20405;-78
2021/09/23 12:23:17;;;;;;;5.90;2.63;;;;;;;;;;5036161;28;20450;-78
2021/09/23 12:25:43;;;;;;;8.23;3.07;;;;;;;;;;5036719;28;20494;-78
2021/09/23 12:28:09;;;;;;;3.47;2.27;;;;;;;;;;5036520;28;20413;-78
2021/09/23 12:30:36;;;;;;;9.77;3.10;;;;;;;;;;5019058;28;20463;-77
2021/09/23 12:33:03;;;;;;;5.57;2.83;;;;;;;;;;5036034;28;20439;-77
2021/09/23 12:35:29;;;;;;;3.50;2.50;;;;;;;;;;5018856;28;20738;-78
2021/09/23 12:37:55;;;;;;;2.57;2.37;;;;;;;;;;5036214;28;20409;-78
2021/09/23 12:40:28;;;;;;;6.50;2.10;;;;;;;;;;5018602;28;20409;-78
2021/09/23 12:42:55;;;;;;;4.70;2.40;;;;;;;;;;5018141;28;20846;-78
2021/09/23 12:45:22;;;;;;;3.87;2.50;;;;;;;;;;5036059;28;20890;-78
2021/09/23 12:47:53;;;;;;;3.97;2.43;;;;;;;;;;5036030;28;20462;-78
2021/09/23 12:50:21;;;;;;;5.10;2.40;;;;;;;;;;5018296;28;20505;-78
2021/09/23 12:52:48;;;;;;;6.37;2.80;;;;;;;;;;5035762;28;20429;-78
2021/09/23 12:55:23;;;;;;;8.67;3.63;;;;;;;;;;5039893;28;20424;-78
2021/09/23 12:57:53;;;;;;;3.63;2.77;;;;;;;;;;5035811;28;20391;-78
2021/09/23 13:00:21;;;;;;;2.83;2.53;;;;;;;;;;5035892;28;20425;-77
2021/09/23 13:02:47;;;;;;;7.13;3.00;;;;;;;;;;5017875;28;20468;-78
2021/09/23 13:05:18;;;;;;;4.90;3.70;;;;;;;;;;5035841;28;20416;-79
2021/09/23 13:07:48;;;;;;;2.70;2.40;;;;;;;;;;5035958;28;20447;-78
2021/09/23 13:10:16;;;;;;;5.80;3.60;;;;;;;;;;5035882;28;20408;-78
2021/09/23 13:12:47;;;;;;;6.00;4.00;;;;;;;;;;5035354;28;20917;-78
2021/09/23 13:15:15;;;;;;;4.33;3.60;;;;;;;;;;5035567;28;20844;-79
2021/09/23 13:17:41;;;;;;;6.67;3.60;;;;;;;;;;5035257;28;20495;-78
2021/09/23 13:20:08;;;;;;;8.10;3.47;;;;;;;;;;5035599;28;20545;-79
2021/09/23 13:22:35;;;;;;;6.77;3.50;;;;;;;;;;5035035;28;20445;-77
2021/09/23 13:25:01;;;;;;;7.43;4.27;;;;;;;;;;5035630;28;20416;-79
2021/09/23 13:27:27;;;;;;;4.73;3.60;;;;;;;;;;5017649;28;20425;-78
2021/09/23 13:29:53;;;;;;;4.67;3.20;;;;;;;;;;5017404;28;20425;-79
2021/09/23 13:32:19;;;;;;;5.90;3.90;;;;;;;;;;5017188;28;20594;-78
2021/09/23 13:34:45;;;;;;;6.70;3.87;;;;;;;;;;5035320;28;20507;-78
2021/09/23 13:37:11;;;;;;;4.30;3.50;;;;;;;;;;5035265;28;20417;-79
2021/09/23 13:39:37;;;;;;;4.07;3.40;;;;;;;;;;5035088;28;20468;-79
2021/09/23 13:42:03;;;;;;;7.43;3.33;;;;;;;;;;5034561;28;20594;-77
2021/09/23 13:44:29;;;;;;;5.50;3.17;;;;;;;;;;5034936;28;20996;-78
2021/09/23 13:46:56;;;;;;;5.97;3.50;;;;;;;;;;5017231;28;20913;-78
2021/09/23 13:49:21;;;;;;;6.50;3.57;;;;;;;;;;5034981;28;20417;-78
2021/09/23 13:51:47;;;;;;;6.60;3.70;;;;;;;;;;5034508;28;20448;-78
2021/09/23 13:54:13;;;;;;;7.90;3.83;;;;;;;;;;5034660;28;20412;-78
2021/09/23 13:56:39;;;;;;;5.90;3.40;;;;;;;;;;5034782;28;20398;-78
2021/09/23 13:59:05;;;;;;;7.47;3.23;;;;;;;;;;5034702;28;20473;-78
2021/09/23 14:01:31;;;;;;;8.40;3.40;;;;;;;;;;5034311;28;20411;-78
2021/09/23 14:03:57;;;;;;;5.63;3.77;;;;;;;;;;5016952;28;20865;-79
2021/09/23 14:06:23;;;;;;;4.77;2.63;;;;;;;;;;5034417;28;20424;-78
2021/09/23 14:08:49;;;;;;;7.70;3.43;;;;;;;;;;5000472;28;20457;-78
2021/09/23 14:11:17;;;;;;;3.60;2.50;;;;;;;;;;5034208;28;20432;-78
2021/09/23 14:13:46;;;;;;;6.07;2.57;;;;;;;;;;5016984;28;20424;-78
2021/09/23 14:16:12;;;;;;;5.40;3.03;;;;;;;;;;5034642;28;20417;-79
2021/09/23 14:18:38;;;;;;;4.90;3.00;;;;;;;;;;5034147;28;20456;-78
2021/09/23 14:21:04;;;;;;;5.90;3.00;;;;;;;;;;5034179;28;20408;-78
2021/09/23 14:23:30;;;;;;;7.77;3.23;;;;;;;;;;5034245;28;20498;-78
2021/09/23 14:25:56;;;;;;;10.33;2.97;;;;;;;;;;5034361;28;20791;-78
2021/09/23 14:28:22;;;;;;;4.20;2.20;;;;;;;;;;5034210;28;20417;-77
2021/09/23 14:30:48;;;;;;;8.20;3.37;;;;;;;;;;5033324;28;20500;-77
2021/09/23 14:33:14;;;;;;;6.90;2.90;;;;;;;;;;5033676;28;20432;-78